CCG4 weather

Moncton / McEwen Airport
Moncton, New Brunswick, Canada

Public forecast

Using degrees Celsius for public forecast. Weather courtesy of forecast.io.

Closest aviation weather report (METAR) to Moncton / McEwen Airport

Closest report is Greater Moncton Roméo LeBlanc International Airport, 4.5 nm (8.3 km) ESE. Retrieved 2020/05/28 22:00 UTC (47 minutes ago):

CYQM 282200Z 20016G23KT 15SM FEW048 FEW150 SCT240 26/15 A2999 RMK SC1AC1CI2 SC TR SLP156 DENSITY ALT 1600FT

Closest aviation forecast (TAF) to Moncton / McEwen Airport

Closest forecast is Greater Moncton Roméo LeBlanc International Airport, 4.5 nm (8.3 km) ESE. Retrieved 2020/05/28 18:33 UTC (4 hours ago):

TAF CYQM 281730Z 2818/2918 23015G25KT P6SM FEW060 BKN240 FM282300 23010G20KT P6SM SCT240 BECMG 2900/2902 23008KT FM290800 22005KT P6SM SCT008 BKN150 FM291200 22010G20KT P6SM FEW020 BKN150 FM291500 22017G27KT P6SM SCT030 SCT240 RMK NXT FCST BY 290000Z